sensor_id;sensor_type;location;lat;lon;timestamp;pressure;altitude;pressure_sealevel;temperature;humidity
21185;BME280;18176;49.502;11.754;2022-12-17T00:03:20;97052.19;;;3.97;49.19
21185;BME280;18176;49.502;11.754;2022-12-17T00:07:36;97040.34;;;3.66;49.35
21185;BME280;18176;49.502;11.754;2022-12-17T00:11:50;97072.28;;;3.76;49.31
21185;BME280;18176;49.502;11.754;2022-12-17T00:16:03;97070.75;;;3.81;49.18
21185;BME280;18176;49.502;11.754;2022-12-17T00:20:16;97066.94;;;3.84;49.15
21185;BME280;18176;49.502;11.754;2022-12-17T00:24:32;97083.59;;;4.12;48.67
21185;BME280;18176;49.502;11.754;2022-12-17T00:28:44;97055.22;;;3.80;49.02
21185;BME280;18176;49.502;11.754;2022-12-17T00:32:58;97064.81;;;3.58;49.33
21185;BME280;18176;49.502;11.754;2022-12-17T00:37:12;97095.25;;;3.74;49.52
21185;BME280;18176;49.502;11.754;2022-12-17T00:41:27;97078.81;;;3.50;49.57
21185;BME280;18176;49.502;11.754;2022-12-17T00:45:40;97091.44;;;3.62;49.62
21185;BME280;18176;49.502;11.754;2022-12-17T00:49:54;97099.59;;;3.67;49.77
21185;BME280;18176;49.502;11.754;2022-12-17T00:54:07;97100.75;;;3.79;49.67
21185;BME280;18176;49.502;11.754;2022-12-17T00:58:23;97099.66;;;3.88;49.59
21185;BME280;18176;49.502;11.754;2022-12-17T01:02:35;97114.53;;;4.02;49.31
21185;BME280;18176;49.502;11.754;2022-12-17T01:06:48;97117.25;;;3.94;49.36
21185;BME280;18176;49.502;11.754;2022-12-17T01:11:04;97127.38;;;3.97;49.40
21185;BME280;18176;49.502;11.754;2022-12-17T01:15:19;97134.06;;;3.85;49.52
21185;BME280;18176;49.502;11.754;2022-12-17T01:19:33;97142.41;;;3.88;49.42
21185;BME280;18176;49.502;11.754;2022-12-17T01:23:45;97145.56;;;3.84;49.36
21185;BME280;18176;49.502;11.754;2022-12-17T01:27:58;97155.16;;;3.91;49.45
21185;BME280;18176;49.502;11.754;2022-12-17T01:32:13;97157.59;;;3.93;49.33
21185;BME280;18176;49.502;11.754;2022-12-17T01:36:26;97150.28;;;3.88;49.33
21185;BME280;18176;49.502;11.754;2022-12-17T01:40:38;97171.66;;;3.92;49.54
21185;BME280;18176;49.502;11.754;2022-12-17T01:44:54;97059.31;;;3.09;49.66
21185;BME280;18176;49.502;11.754;2022-12-17T01:49:11;97126.78;;;3.36;49.75
21185;BME280;18176;49.502;11.754;2022-12-17T01:53:28;97181.59;;;3.52;50.03
21185;BME280;18176;49.502;11.754;2022-12-17T01:57:42;97179.09;;;3.44;50.16
21185;BME280;18176;49.502;11.754;2022-12-17T02:01:55;97179.44;;;3.41;50.09
21185;BME280;18176;49.502;11.754;2022-12-17T02:06:25;97193.69;;;3.39;50.30
21185;BME280;18176;49.502;11.754;2022-12-17T02:10:43;97178.44;;;3.28;50.36
21185;BME280;18176;49.502;11.754;2022-12-17T02:15:06;97201.47;;;3.32;50.42
21185;BME280;18176;49.502;11.754;2022-12-17T02:19:37;97168.00;;;3.05;50.53
21185;BME280;18176;49.502;11.754;2022-12-17T02:24:07;97199.63;;;3.18;50.53
21185;BME280;18176;49.502;11.754;2022-12-17T02:28:26;97196.56;;;3.15;50.68
21185;BME280;18176;49.502;11.754;2022-12-17T02:32:43;97204.31;;;3.08;50.82
21185;BME280;18176;49.502;11.754;2022-12-17T02:36:58;97196.19;;;3.18;50.39
21185;BME280;18176;49.502;11.754;2022-12-17T02:41:15;97202.53;;;3.23;50.17
21185;BME280;18176;49.502;11.754;2022-12-17T02:45:33;97218.56;;;3.43;50.10
21185;BME280;18176;49.502;11.754;2022-12-17T02:49:46;97187.72;;;3.30;49.94
21185;BME280;18176;49.502;11.754;2022-12-17T02:54:04;97199.94;;;3.38;49.80
21185;BME280;18176;49.502;11.754;2022-12-17T02:58:17;97213.19;;;3.36;49.89
21185;BME280;18176;49.502;11.754;2022-12-17T03:02:33;97237.44;;;3.38;49.93
21185;BME280;18176;49.502;11.754;2022-12-17T03:06:45;97241.59;;;3.47;49.87
21185;BME280;18176;49.502;11.754;2022-12-17T03:10:58;97254.97;;;3.52;49.66
21185;BME280;18176;49.502;11.754;2022-12-17T03:15:11;97221.34;;;3.41;49.70
21185;BME280;18176;49.502;11.754;2022-12-17T03:19:26;97260.09;;;3.46;49.78
21185;BME280;18176;49.502;11.754;2022-12-17T03:23:39;97256.41;;;3.40;50.01
21185;BME280;18176;49.502;11.754;2022-12-17T03:27:51;97269.66;;;3.39;50.09
21185;BME280;18176;49.502;11.754;2022-12-17T03:32:10;97195.94;;;2.90;50.27
21185;BME280;18176;49.502;11.754;2022-12-17T03:36:25;97270.19;;;3.34;50.19
21185;BME280;18176;49.502;11.754;2022-12-17T03:40:38;97277.69;;;3.37;50.22
21185;BME280;18176;49.502;11.754;2022-12-17T03:44:50;97293.63;;;3.50;50.14
21185;BME280;18176;49.502;11.754;2022-12-17T03:49:03;97301.28;;;3.75;49.62
21185;BME280;18176;49.502;11.754;2022-12-17T03:53:19;97268.97;;;3.60;49.46
21185;BME280;18176;49.502;11.754;2022-12-17T03:57:32;97293.13;;;3.70;49.37
21185;BME280;18176;49.502;11.754;2022-12-17T04:01:44;97302.13;;;3.52;49.98
21185;BME280;18176;49.502;11.754;2022-12-17T04:05:57;97303.66;;;3.47;50.08
21185;BME280;18176;49.502;11.754;2022-12-17T04:10:13;97307.00;;;3.55;49.90
21185;BME280;18176;49.502;11.754;2022-12-17T04:14:25;97303.28;;;3.50;50.00
21185;BME280;18176;49.502;11.754;2022-12-17T04:18:38;97310.06;;;3.44;50.22
21185;BME280;18176;49.502;11.754;2022-12-17T04:22:51;97309.00;;;3.31;50.04
21185;BME280;18176;49.502;11.754;2022-12-17T04:27:06;97318.47;;;3.09;50.32
21185;BME280;18176;49.502;11.754;2022-12-17T04:31:19;97321.19;;;2.93;50.36
21185;BME280;18176;49.502;11.754;2022-12-17T04:35:31;97272.25;;;2.40;50.49
21185;BME280;18176;49.502;11.754;2022-12-17T04:39:44;97334.19;;;2.40;50.79
21185;BME280;18176;49.502;11.754;2022-12-17T04:43:59;97355.69;;;2.11;51.16
21185;BME280;18176;49.502;11.754;2022-12-17T04:48:12;97319.66;;;1.50;51.99
21185;BME280;18176;49.502;11.754;2022-12-17T04:52:25;97363.41;;;1.56;52.43
21185;BME280;18176;49.502;11.754;2022-12-17T04:56:37;97373.84;;;1.48;52.21
21185;BME280;18176;49.502;11.754;2022-12-17T05:00:54;97369.25;;;1.34;52.53
21185;BME280;18176;49.502;11.754;2022-12-17T05:05:08;97357.16;;;1.09;53.19
21185;BME280;18176;49.502;11.754;2022-12-17T05:09:21;97390.47;;;1.23;53.71
21185;BME280;18176;49.502;11.754;2022-12-17T05:13:33;97393.38;;;1.12;53.83
21185;BME280;18176;49.502;11.754;2022-12-17T05:18:04;97372.25;;;0.81;54.08
21185;BME280;18176;49.502;11.754;2022-12-17T05:22:17;97412.28;;;1.06;53.64
21185;BME280;18176;49.502;11.754;2022-12-17T05:26:29;97416.75;;;0.88;53.88
21185;BME280;18176;49.502;11.754;2022-12-17T05:30:42;97416.69;;;0.71;54.03
21185;BME280;18176;49.502;11.754;2022-12-17T05:34:57;97408.47;;;0.50;54.33
21185;BME280;18176;49.502;11.754;2022-12-17T05:39:10;97402.81;;;0.29;53.96
21185;BME280;18176;49.502;11.754;2022-12-17T05:43:23;97434.94;;;0.38;53.97
21185;BME280;18176;49.502;11.754;2022-12-17T05:47:36;97438.28;;;0.22;54.25
21185;BME280;18176;49.502;11.754;2022-12-17T05:51:51;97414.66;;;-0.02;54.36
21185;BME280;18176;49.502;11.754;2022-12-17T05:56:04;97430.22;;;-0.10;54.46
21185;BME280;18176;49.502;11.754;2022-12-17T06:00:17;97442.28;;;-0.09;54.61
21185;BME280;18176;49.502;11.754;2022-12-17T06:04:30;97458.09;;;-0.28;54.69
21185;BME280;18176;49.502;11.754;2022-12-17T06:08:45;97451.91;;;-0.45;54.87
21185;BME280;18176;49.502;11.754;2022-12-17T06:12:57;97466.28;;;-0.23;54.04
21185;BME280;18176;49.502;11.754;2022-12-17T06:17:10;97394.69;;;-0.90;54.19
21185;BME280;18176;49.502;11.754;2022-12-17T06:21:23;97470.44;;;-0.30;53.83
21185;BME280;18176;49.502;11.754;2022-12-17T06:25:39;97406.91;;;-0.73;53.59
21185;BME280;18176;49.502;11.754;2022-12-17T06:29:51;97479.72;;;-0.45;53.80
21185;BME280;18176;49.502;11.754;2022-12-17T06:34:04;97497.38;;;-0.66;54.28
21185;BME280;18176;49.502;11.754;2022-12-17T06:38:16;97460.69;;;-0.91;53.80
21185;BME280;18176;49.502;11.754;2022-12-17T06:42:32;97493.00;;;-0.93;53.98
21185;BME280;18176;49.502;11.754;2022-12-17T06:46:44;97510.28;;;-0.92;53.71
21185;BME280;18176;49.502;11.754;2022-12-17T06:50:57;97544.31;;;-1.13;54.31
21185;BME280;18176;49.502;11.754;2022-12-17T06:55:10;97542.94;;;-1.26;54.11
21185;BME280;18176;49.502;11.754;2022-12-17T06:59:25;97539.69;;;-1.38;54.35
21185;BME280;18176;49.502;11.754;2022-12-17T07:03:38;97546.16;;;-1.05;53.99
21185;BME280;18176;49.502;11.754;2022-12-17T07:07:56;97557.13;;;-1.02;53.63
21185;BME280;18176;49.502;11.754;2022-12-17T07:12:09;97562.72;;;-0.97;53.69
21185;BME280;18176;49.502;11.754;2022-12-17T07:16:24;97574.03;;;-0.88;53.81
21185;BME280;18176;49.502;11.754;2022-12-17T07:20:37;97576.19;;;-1.11;54.27
21185;BME280;18176;49.502;11.754;2022-12-17T07:24:49;97559.06;;;-1.04;54.12
21185;BME280;18176;49.502;11.754;2022-12-17T07:29:02;97581.47;;;-1.03;54.28
21185;BME280;18176;49.502;11.754;2022-12-17T07:33:17;97587.25;;;-1.09;54.35
21185;BME280;18176;49.502;11.754;2022-12-17T07:37:30;97556.38;;;-1.31;54.24
21185;BME280;18176;49.502;11.754;2022-12-17T07:41:43;97607.63;;;-1.04;54.10
21185;BME280;18176;49.502;11.754;2022-12-17T07:45:56;97615.97;;;-1.01;54.14
21185;BME280;18176;49.502;11.754;2022-12-17T07:50:11;97621.69;;;-0.88;54.08
21185;BME280;18176;49.502;11.754;2022-12-17T07:54:24;97637.22;;;-0.68;54.41
21185;BME280;18176;49.502;11.754;2022-12-17T07:58:39;97635.22;;;-0.20;54.08
21185;BME280;18176;49.502;11.754;2022-12-17T08:02:56;97598.13;;;0.13;53.49
21185;BME280;18176;49.502;11.754;2022-12-17T08:07:12;97623.75;;;0.96;52.67
21185;BME280;18176;49.502;11.754;2022-12-17T08:11:24;97634.88;;;1.32;51.43
21185;BME280;18176;49.502;11.754;2022-12-17T08:15:38;97638.31;;;1.66;50.90
21185;BME280;18176;49.502;11.754;2022-12-17T08:19:51;97615.38;;;1.52;49.93
21185;BME280;18176;49.502;11.754;2022-12-17T08:24:07;97653.84;;;2.18;49.65
21185;BME280;18176;49.502;11.754;2022-12-17T08:28:19;97620.88;;;2.41;48.57
21185;BME280;18176;49.502;11.754;2022-12-17T08:32:48;97665.38;;;2.97;47.62
21185;BME280;18176;49.502;11.754;2022-12-17T08:37:00;97672.25;;;3.22;46.53
21185;BME280;18176;49.502;11.754;2022-12-17T08:41:15;97668.41;;;3.49;46.38
21185;BME280;18176;49.502;11.754;2022-12-17T08:45:28;97678.31;;;3.78;44.98
21185;BME280;18176;49.502;11.754;2022-12-17T08:49:41;97672.03;;;3.95;43.90
21185;BME280;18176;49.502;11.754;2022-12-17T08:53:53;97676.91;;;4.06;43.83
21185;BME280;18176;49.502;11.754;2022-12-17T08:58:09;97680.69;;;4.34;43.52
21185;BME280;18176;49.502;11.754;2022-12-17T09:02:23;97683.53;;;5.01;42.59
21185;BME280;18176;49.502;11.754;2022-12-17T09:06:35;97682.34;;;5.26;42.54
21185;BME280;18176;49.502;11.754;2022-12-17T09:10:48;97667.69;;;5.46;41.65
21185;BME280;18176;49.502;11.754;2022-12-17T09:15:05;97685.66;;;6.15;41.49
21185;BME280;18176;49.502;11.754;2022-12-17T09:19:18;97681.09;;;6.38;40.77
21185;BME280;18176;49.502;11.754;2022-12-17T09:23:30;97682.78;;;6.82;40.20
21185;BME280;18176;49.502;11.754;2022-12-17T09:27:43;97692.16;;;7.33;38.34
21185;BME280;18176;49.502;11.754;2022-12-17T09:31:59;97678.47;;;7.44;38.41
21185;BME280;18176;49.502;11.754;2022-12-17T09:36:11;97693.63;;;7.98;37.88
21185;BME280;18176;49.502;11.754;2022-12-17T09:40:24;97688.91;;;7.87;37.94
21185;BME280;18176;49.502;11.754;2022-12-17T09:44:43;97708.59;;;8.25;37.15
21185;BME280;18176;49.502;11.754;2022-12-17T09:49:12;97699.44;;;8.68;36.23
21185;BME280;18176;49.502;11.754;2022-12-17T09:53:34;97710.88;;;8.88;35.90
21185;BME280;18176;49.502;11.754;2022-12-17T09:57:49;97689.78;;;9.34;35.52
21185;BME280;18176;49.502;11.754;2022-12-17T10:02:18;97692.84;;;9.64;34.66
21185;BME280;18176;49.502;11.754;2022-12-17T10:06:36;97678.34;;;9.86;33.98
21185;BME280;18176;49.502;11.754;2022-12-17T10:10:48;97704.34;;;10.28;33.43
21185;BME280;18176;49.502;11.754;2022-12-17T10:15:01;97708.44;;;10.69;33.93
21185;BME280;18176;49.502;11.754;2022-12-17T10:19:24;97699.81;;;11.17;33.05
21185;BME280;18176;49.502;11.754;2022-12-17T10:23:43;97705.75;;;10.82;32.88
21185;BME280;18176;49.502;11.754;2022-12-17T10:28:01;97682.53;;;10.71;32.96
21185;BME280;18176;49.502;11.754;2022-12-17T10:32:21;97695.16;;;10.82;33.56
21185;BME280;18176;49.502;11.754;2022-12-17T10:36:35;97709.00;;;11.46;33.32
21185;BME280;18176;49.502;11.754;2022-12-17T10:40:50;97700.22;;;11.70;32.57
21185;BME280;18176;49.502;11.754;2022-12-17T10:45:20;97668.31;;;11.77;32.14
21185;BME280;18176;49.502;11.754;2022-12-17T10:49:33;97715.06;;;12.21;32.09
21185;BME280;18176;49.502;11.754;2022-12-17T10:54:09;97685.97;;;12.44;31.98
21185;BME280;18176;49.502;11.754;2022-12-17T10:58:34;97696.91;;;12.54;31.68
21185;BME280;18176;49.502;11.754;2022-12-17T11:02:47;97728.75;;;12.90;31.58
21185;BME280;18176;49.502;11.754;2022-12-17T11:07:00;97724.13;;;13.57;30.64
21185;BME280;18176;49.502;11.754;2022-12-17T11:11:15;97729.44;;;13.57;30.31
21185;BME280;18176;49.502;11.754;2022-12-17T11:15:36;97725.09;;;13.74;30.36
21185;BME280;18176;49.502;11.754;2022-12-17T11:19:54;97731.00;;;13.99;30.11
21185;BME280;18176;49.502;11.754;2022-12-17T11:24:17;97731.34;;;14.14;29.96
21185;BME280;18176;49.502;11.754;2022-12-17T11:28:34;97739.56;;;14.24;30.01
21185;BME280;18176;49.502;11.754;2022-12-17T11:33:02;97743.75;;;14.55;29.69
21185;BME280;18176;49.502;11.754;2022-12-17T11:37:20;97745.22;;;14.62;28.74
21185;BME280;18176;49.502;11.754;2022-12-17T11:41:45;97730.88;;;14.40;28.99
21185;BME280;18176;49.502;11.754;2022-12-17T11:46:20;97711.31;;;14.74;29.08
21185;BME280;18176;49.502;11.754;2022-12-17T11:50:44;97733.81;;;14.78;29.00
21185;BME280;18176;49.502;11.754;2022-12-17T11:55:10;97664.34;;;14.45;28.57
21185;BME280;18176;49.502;11.754;2022-12-17T11:59:30;97723.16;;;15.07;28.66
21185;BME280;18176;49.502;11.754;2022-12-17T12:04:06;97700.09;;;15.01;28.29
21185;BME280;18176;49.502;11.754;2022-12-17T12:08:28;97733.56;;;15.36;28.38
21185;BME280;18176;49.502;11.754;2022-12-17T12:13:02;97731.47;;;15.83;28.56
21185;BME280;18176;49.502;11.754;2022-12-17T12:17:38;97731.94;;;15.97;28.00
21185;BME280;18176;49.502;11.754;2022-12-17T12:22:02;97725.25;;;16.71;27.64
21185;BME280;18176;49.502;11.754;2022-12-17T12:26:27;97737.41;;;16.83;27.57
21185;BME280;18176;49.502;11.754;2022-12-17T12:30:54;97705.63;;;17.14;26.50
21185;BME280;18176;49.502;11.754;2022-12-17T12:35:17;97722.22;;;17.64;26.50
21185;BME280;18176;49.502;11.754;2022-12-17T12:39:37;97730.41;;;18.16;26.36
21185;BME280;18176;49.502;11.754;2022-12-17T12:43:58;97707.41;;;18.35;25.46
21185;BME280;18176;49.502;11.754;2022-12-17T12:48:30;97742.44;;;18.50;25.40
21185;BME280;18176;49.502;11.754;2022-12-17T12:52:45;97719.13;;;18.19;25.35
21185;BME280;18176;49.502;11.754;2022-12-17T12:56:58;97739.56;;;18.25;25.20
21185;BME280;18176;49.502;11.754;2022-12-17T13:01:14;97738.56;;;18.36;25.24
21185;BME280;18176;49.502;11.754;2022-12-17T13:05:36;97746.38;;;18.01;24.73
21185;BME280;18176;49.502;11.754;2022-12-17T13:09:48;97734.19;;;18.72;24.67
21185;BME280;18176;49.502;11.754;2022-12-17T13:13:49;97749.44;;;19.23;24.09
21185;BME280;18176;49.502;11.754;2022-12-17T13:18:05;97731.41;;;19.19;24.17
21185;BME280;18176;49.502;11.754;2022-12-17T13:22:32;97751.31;;;19.23;23.97
21185;BME280;18176;49.502;11.754;2022-12-17T13:26:43;97758.03;;;18.21;24.91
21185;BME280;18176;49.502;11.754;2022-12-17T13:30:44;97755.59;;;18.15;24.67
21185;BME280;18176;49.502;11.754;2022-12-17T13:35:03;97762.25;;;17.76;25.80
21185;BME280;18176;49.502;11.754;2022-12-17T13:39:23;97756.50;;;17.35;26.13
21185;BME280;18176;49.502;11.754;2022-12-17T13:43:32;97779.19;;;17.06;26.26
21185;BME280;18176;49.502;11.754;2022-12-17T13:47:34;97766.78;;;16.78;26.88
21185;BME280;18176;49.502;11.754;2022-12-17T13:51:37;97773.97;;;16.73;26.93
21185;BME280;18176;49.502;11.754;2022-12-17T13:55:38;97785.22;;;16.75;26.99
21185;BME280;18176;49.502;11.754;2022-12-17T13:59:39;97725.75;;;16.30;26.60
21185;BME280;18176;49.502;11.754;2022-12-17T14:03:49;97784.56;;;16.30;27.16
21185;BME280;18176;49.502;11.754;2022-12-17T14:08:12;97808.97;;;15.83;27.90
21185;BME280;18176;49.502;11.754;2022-12-17T14:12:18;97806.00;;;15.12;28.58
21185;BME280;18176;49.502;11.754;2022-12-17T14:16:22;97818.06;;;14.51;29.09
21185;BME280;18176;49.502;11.754;2022-12-17T14:20:24;97807.56;;;13.92;29.96
21185;BME280;18176;49.502;11.754;2022-12-17T14:24:30;97830.69;;;13.80;30.64
21185;BME280;18176;49.502;11.754;2022-12-17T14:28:34;97836.34;;;13.12;31.26
21185;BME280;18176;49.502;11.754;2022-12-17T14:32:36;97833.38;;;12.66;31.63
21185;BME280;18176;49.502;11.754;2022-12-17T14:36:39;97833.81;;;12.20;32.20
21185;BME280;18176;49.502;11.754;2022-12-17T14:40:42;97843.59;;;11.70;33.02
21185;BME280;18176;49.502;11.754;2022-12-17T14:44:50;97846.75;;;11.10;33.66
21185;BME280;18176;49.502;11.754;2022-12-17T14:48:55;97849.38;;;10.52;34.23
21185;BME280;18176;49.502;11.754;2022-12-17T14:53:23;97845.34;;;10.17;34.99
21185;BME280;18176;49.502;11.754;2022-12-17T14:57:26;97843.44;;;9.52;36.05
21185;BME280;18176;49.502;11.754;2022-12-17T15:01:26;97861.25;;;8.70;37.15
21185;BME280;18176;49.502;11.754;2022-12-17T15:05:26;97865.41;;;8.03;38.51
21185;BME280;18176;49.502;11.754;2022-12-17T15:09:26;97875.31;;;7.37;39.73
21185;BME280;18176;49.502;11.754;2022-12-17T15:13:29;97870.78;;;6.52;41.38
21185;BME280;18176;49.502;11.754;2022-12-17T15:17:29;97878.47;;;6.24;42.28
21185;BME280;18176;49.502;11.754;2022-12-17T15:21:30;97888.41;;;5.77;42.96
21185;BME280;18176;49.502;11.754;2022-12-17T15:25:31;97887.88;;;5.36;43.97
21185;BME280;18176;49.502;11.754;2022-12-17T15:29:43;97878.22;;;4.97;44.59
21185;BME280;18176;49.502;11.754;2022-12-17T15:33:43;97897.09;;;4.54;45.27
21185;BME280;18176;49.502;11.754;2022-12-17T15:37:43;97899.94;;;4.20;46.36
21185;BME280;18176;49.502;11.754;2022-12-17T15:41:43;97883.44;;;3.88;46.63
21185;BME280;18176;49.502;11.754;2022-12-17T15:46:00;97909.31;;;3.91;47.32
21185;BME280;18176;49.502;11.754;2022-12-17T15:50:00;97904.91;;;3.75;47.14
21185;BME280;18176;49.502;11.754;2022-12-17T15:54:00;97902.41;;;3.58;47.75
21185;BME280;18176;49.502;11.754;2022-12-17T15:58:01;97899.09;;;3.39;48.35
21185;BME280;18176;49.502;11.754;2022-12-17T16:02:03;97909.19;;;3.10;49.31
21185;BME280;18176;49.502;11.754;2022-12-17T16:06:05;97909.25;;;2.84;50.27
21185;BME280;18176;49.502;11.754;2022-12-17T16:10:06;97916.38;;;2.66;50.01
21185;BME280;18176;49.502;11.754;2022-12-17T16:14:06;97916.00;;;2.28;51.31
21185;BME280;18176;49.502;11.754;2022-12-17T16:18:09;97905.22;;;2.05;51.20
21185;BME280;18176;49.502;11.754;2022-12-17T16:22:09;97884.91;;;1.99;50.65
21185;BME280;18176;49.502;11.754;2022-12-17T16:26:10;97923.53;;;1.87;51.31
21185;BME280;18176;49.502;11.754;2022-12-17T16:30:12;97924.69;;;1.67;51.39
21185;BME280;18176;49.502;11.754;2022-12-17T16:34:16;97929.69;;;1.78;50.92
21185;BME280;18176;49.502;11.754;2022-12-17T16:38:16;97930.72;;;1.50;51.28
21185;BME280;18176;49.502;11.754;2022-12-17T16:42:16;97943.25;;;1.29;52.22
21185;BME280;18176;49.502;11.754;2022-12-17T16:46:26;97946.03;;;1.18;52.46
21185;BME280;18176;49.502;11.754;2022-12-17T16:50:29;97909.72;;;0.80;52.75
21185;BME280;18176;49.502;11.754;2022-12-17T16:54:31;97911.66;;;0.78;52.87
21185;BME280;18176;49.502;11.754;2022-12-17T16:58:31;97948.72;;;0.81;52.76
21185;BME280;18176;49.502;11.754;2022-12-17T17:02:32;97954.66;;;0.74;52.24
21185;BME280;18176;49.502;11.754;2022-12-17T17:06:38;97934.34;;;0.95;57.63
21185;BME280;18176;49.502;11.754;2022-12-17T17:10:38;97951.94;;;1.47;57.33
21185;BME280;18176;49.502;11.754;2022-12-17T17:14:38;97962.00;;;1.42;54.38
21185;BME280;18176;49.502;11.754;2022-12-17T17:18:40;97909.81;;;0.88;53.74
21185;BME280;18176;49.502;11.754;2022-12-17T17:22:43;97945.56;;;0.50;53.36
21185;BME280;18176;49.502;11.754;2022-12-17T17:26:43;97977.69;;;0.41;53.46
21185;BME280;18176;49.502;11.754;2022-12-17T17:30:43;97973.34;;;0.13;53.80
21185;BME280;18176;49.502;11.754;2022-12-17T17:34:43;97988.72;;;-0.03;53.88
21185;BME280;18176;49.502;11.754;2022-12-17T17:38:48;97969.53;;;-0.31;54.02
21185;BME280;18176;49.502;11.754;2022-12-17T17:42:49;97993.91;;;-0.22;53.87
21185;BME280;18176;49.502;11.754;2022-12-17T17:46:49;97993.91;;;-0.13;53.21
21185;BME280;18176;49.502;11.754;2022-12-17T17:51:00;98000.38;;;-0.26;53.10
21185;BME280;18176;49.502;11.754;2022-12-17T17:55:04;97979.66;;;-0.47;53.20
21185;BME280;18176;49.502;11.754;2022-12-17T17:59:07;97991.16;;;-0.49;53.53
21185;BME280;18176;49.502;11.754;2022-12-17T18:03:07;98012.25;;;-0.43;53.12
21185;BME280;18176;49.502;11.754;2022-12-17T18:07:07;98014.44;;;-0.48;53.01
21185;BME280;18176;49.502;11.754;2022-12-17T18:11:29;98010.88;;;-0.56;53.22
21185;BME280;18176;49.502;11.754;2022-12-17T18:15:30;98017.41;;;-0.62;53.44
21185;BME280;18176;49.502;11.754;2022-12-17T18:19:30;98008.06;;;-0.84;53.35
21185;BME280;18176;49.502;11.754;2022-12-17T18:23:30;98027.25;;;-0.75;53.40
21185;BME280;18176;49.502;11.754;2022-12-17T18:27:33;98026.72;;;-0.79;53.38
21185;BME280;18176;49.502;11.754;2022-12-17T18:31:33;98023.31;;;-1.09;53.65
21185;BME280;18176;49.502;11.754;2022-12-17T18:35:33;98029.59;;;-1.12;54.80
21185;BME280;18176;49.502;11.754;2022-12-17T18:39:34;98041.56;;;-1.00;53.95
21185;BME280;18176;49.502;11.754;2022-12-17T18:43:39;98019.78;;;-1.59;54.05
21185;BME280;18176;49.502;11.754;2022-12-17T18:47:39;98040.28;;;-1.56;54.34
21185;BME280;18176;49.502;11.754;2022-12-17T18:51:43;98041.56;;;-1.71;54.43
21185;BME280;18176;49.502;11.754;2022-12-17T18:55:44;98031.78;;;-1.99;54.97
21185;BME280;18176;49.502;11.754;2022-12-17T18:59:48;98046.28;;;-1.97;54.73
21185;BME280;18176;49.502;11.754;2022-12-17T19:03:48;98050.94;;;-2.00;54.34
21185;BME280;18176;49.502;11.754;2022-12-17T19:07:48;98021.47;;;-1.90;53.38
21185;BME280;18176;49.502;11.754;2022-12-17T19:11:50;98057.16;;;-1.71;53.11
21185;BME280;18176;49.502;11.754;2022-12-17T19:15:53;98057.22;;;-1.82;53.44
21185;BME280;18176;49.502;11.754;2022-12-17T19:19:53;98047.38;;;-1.99;53.55
21185;BME280;18176;49.502;11.754;2022-12-17T19:23:56;98080.84;;;-1.85;52.93
21185;BME280;18176;49.502;11.754;2022-12-17T19:27:57;98068.22;;;-2.22;53.04
21185;BME280;18176;49.502;11.754;2022-12-17T19:32:00;98091.38;;;-2.30;52.91
21185;BME280;18176;49.502;11.754;2022-12-17T19:36:04;98087.09;;;-2.20;52.61
21185;BME280;18176;49.502;11.754;2022-12-17T19:40:06;97747.94;;;-4.63;52.94
21185;BME280;18176;49.502;11.754;2022-12-17T19:44:11;98101.09;;;-2.65;53.51
21185;BME280;18176;49.502;11.754;2022-12-17T19:48:14;98088.84;;;-2.85;53.84
21185;BME280;18176;49.502;11.754;2022-12-17T19:52:15;98101.09;;;-2.65;53.17
21185;BME280;18176;49.502;11.754;2022-12-17T19:56:19;98090.34;;;-2.71;53.10
21185;BME280;18176;49.502;11.754;2022-12-17T20:00:19;98108.31;;;-2.91;53.50
21185;BME280;18176;49.502;11.754;2022-12-17T20:04:22;98100.41;;;-3.00;53.45
21185;BME280;18176;49.502;11.754;2022-12-17T20:08:22;98109.09;;;-3.01;53.40
21185;BME280;18176;49.502;11.754;2022-12-17T20:12:22;98113.72;;;-3.05;53.50
21185;BME280;18176;49.502;11.754;2022-12-17T20:16:23;98116.88;;;-3.12;53.75
21185;BME280;18176;49.502;11.754;2022-12-17T20:20:25;98116.16;;;-3.14;54.00
21185;BME280;18176;49.502;11.754;2022-12-17T20:24:26;98115.69;;;-3.19;53.67
21185;BME280;18176;49.502;11.754;2022-12-17T20:28:28;98122.25;;;-3.37;54.39
21185;BME280;18176;49.502;11.754;2022-12-17T20:32:28;98097.41;;;-3.40;53.81
21185;BME280;18176;49.502;11.754;2022-12-17T20:36:31;98108.81;;;-3.42;53.33
21185;BME280;18176;49.502;11.754;2022-12-17T20:40:32;98108.38;;;-3.25;52.80
21185;BME280;18176;49.502;11.754;2022-12-17T20:44:32;98103.53;;;-3.41;53.21
21185;BME280;18176;49.502;11.754;2022-12-17T20:48:32;98107.97;;;-3.43;53.06
21185;BME280;18176;49.502;11.754;2022-12-17T20:52:36;98022.25;;;-4.08;52.82
21185;BME280;18176;49.502;11.754;2022-12-17T20:56:38;98115.03;;;-3.45;53.26
21185;BME280;18176;49.502;11.754;2022-12-17T21:00:38;98127.91;;;-3.43;53.55
21185;BME280;18176;49.502;11.754;2022-12-17T21:04:38;98115.66;;;-3.41;53.47
21185;BME280;18176;49.502;11.754;2022-12-17T21:08:44;98118.25;;;-3.30;53.24
21185;BME280;18176;49.502;11.754;2022-12-17T21:12:46;98128.56;;;-3.07;53.14
21185;BME280;18176;49.502;11.754;2022-12-17T21:16:59;98098.72;;;-3.01;52.52
21185;BME280;18176;49.502;11.754;2022-12-17T21:21:05;98125.38;;;-2.66;52.53
21185;BME280;18176;49.502;11.754;2022-12-17T21:25:08;98126.34;;;-2.56;52.51
21185;BME280;18176;49.502;11.754;2022-12-17T21:29:09;98125.34;;;-2.44;52.14
21185;BME280;18176;49.502;11.754;2022-12-17T21:33:10;98109.81;;;-2.55;51.89
21185;BME280;18176;49.502;11.754;2022-12-17T21:37:11;98148.97;;;-2.58;52.52
21185;BME280;18176;49.502;11.754;2022-12-17T21:41:17;98142.47;;;-2.52;52.51
21185;BME280;18176;49.502;11.754;2022-12-17T21:45:17;98139.28;;;-2.45;52.55
21185;BME280;18176;49.502;11.754;2022-12-17T21:49:18;98148.72;;;-2.44;52.23
21185;BME280;18176;49.502;11.754;2022-12-17T21:53:19;98149.53;;;-2.32;52.47
21185;BME280;18176;49.502;11.754;2022-12-17T21:57:22;98156.72;;;-2.25;52.33
21185;BME280;18176;49.502;11.754;2022-12-17T22:01:25;98137.41;;;-2.43;52.23